Terminal Aerodrome Forecast
Issued by NWS Goodland, KS

Home | Current Version | Previous Version | Text Only | Print | Product List | Glossary On
Versions: 1 2 3 4 5 6 7 8 9 10 11 12 13 14 15 16
000
FTUS43 KGLD 292337
TAFGLD
TAF
KGLD 292337Z 3000/3024 03007KT P6SM FEW250
     FM300100 VRB05KT P6SM FEW250
     FM300500 19010KT P6SM SKC
     FM301400 23015G22KT P6SM SKC
     FM301700 33012G18KT P6SM SKC=

USA.gov is the U.S. government's official web portal to all federal, state and local government web resources and services.